sensor_id;sensor_type;location;lat;lon;timestamp;P1;durP1;ratioP1;P2;durP2;ratioP2
65459;SDS011;52058;49.822;6.754;2023-02-11T00:00:37;44.55;;;20.73;;
65459;SDS011;52058;49.822;6.754;2023-02-11T00:03:05;35.97;;;19.52;;
65459;SDS011;52058;49.822;6.754;2023-02-11T00:05:31;45.65;;;22.25;;
65459;SDS011;52058;49.822;6.754;2023-02-11T00:07:58;43.00;;;20.92;;
65459;SDS011;52058;49.822;6.754;2023-02-11T00:10:25;41.42;;;19.48;;
65459;SDS011;52058;49.822;6.754;2023-02-11T00:12:53;43.45;;;19.50;;
65459;SDS011;52058;49.822;6.754;2023-02-11T00:15:20;39.00;;;20.08;;
65459;SDS011;52058;49.822;6.754;2023-02-11T00:17:47;40.17;;;19.95;;
65459;SDS011;52058;49.822;6.754;2023-02-11T00:20:13;38.45;;;19.83;;
65459;SDS011;52058;49.822;6.754;2023-02-11T00:22:40;38.08;;;20.25;;
65459;SDS011;52058;49.822;6.754;2023-02-11T00:25:07;40.00;;;19.35;;
65459;SDS011;52058;49.822;6.754;2023-02-11T00:27:35;40.95;;;19.77;;
65459;SDS011;52058;49.822;6.754;2023-02-11T00:30:04;42.78;;;20.13;;
65459;SDS011;52058;49.822;6.754;2023-02-11T00:32:31;37.20;;;18.48;;
65459;SDS011;52058;49.822;6.754;2023-02-11T00:34:58;42.90;;;19.20;;
65459;SDS011;52058;49.822;6.754;2023-02-11T00:37:25;38.90;;;19.15;;
65459;SDS011;52058;49.822;6.754;2023-02-11T00:39:51;41.60;;;19.63;;
65459;SDS011;52058;49.822;6.754;2023-02-11T00:42:18;42.15;;;20.27;;
65459;SDS011;52058;49.822;6.754;2023-02-11T00:44:45;39.95;;;19.80;;
65459;SDS011;52058;49.822;6.754;2023-02-11T00:47:13;44.35;;;19.38;;
65459;SDS011;52058;49.822;6.754;2023-02-11T00:49:40;42.45;;;19.73;;
65459;SDS011;52058;49.822;6.754;2023-02-11T00:52:06;45.80;;;22.00;;
65459;SDS011;52058;49.822;6.754;2023-02-11T00:54:33;45.08;;;20.55;;
65459;SDS011;52058;49.822;6.754;2023-02-11T00:57:00;44.63;;;19.85;;
65459;SDS011;52058;49.822;6.754;2023-02-11T00:59:27;40.17;;;19.83;;
65459;SDS011;52058;49.822;6.754;2023-02-11T01:01:53;37.85;;;19.65;;
65459;SDS011;52058;49.822;6.754;2023-02-11T01:04:22;39.38;;;18.63;;
65459;SDS011;52058;49.822;6.754;2023-02-11T01:06:49;36.03;;;19.17;;
65459;SDS011;52058;49.822;6.754;2023-02-11T01:09:16;37.35;;;19.20;;
65459;SDS011;52058;49.822;6.754;2023-02-11T01:11:43;35.72;;;18.23;;
65459;SDS011;52058;49.822;6.754;2023-02-11T01:14:10;36.65;;;17.42;;
65459;SDS011;52058;49.822;6.754;2023-02-11T01:16:37;40.50;;;19.30;;
65459;SDS011;52058;49.822;6.754;2023-02-11T01:19:04;38.28;;;19.13;;
65459;SDS011;52058;49.822;6.754;2023-02-11T01:21:32;42.13;;;19.75;;
65459;SDS011;52058;49.822;6.754;2023-02-11T01:23:59;39.22;;;18.98;;
65459;SDS011;52058;49.822;6.754;2023-02-11T01:26:26;39.20;;;18.65;;
65459;SDS011;52058;49.822;6.754;2023-02-11T01:28:53;34.83;;;18.38;;
65459;SDS011;52058;49.822;6.754;2023-02-11T01:31:19;35.40;;;18.00;;
65459;SDS011;52058;49.822;6.754;2023-02-11T01:33:46;38.50;;;18.48;;
65459;SDS011;52058;49.822;6.754;2023-02-11T01:36:13;36.17;;;18.65;;
65459;SDS011;52058;49.822;6.754;2023-02-11T01:38:41;37.42;;;19.10;;
65459;SDS011;52058;49.822;6.754;2023-02-11T01:41:09;39.05;;;19.38;;
65459;SDS011;52058;49.822;6.754;2023-02-11T01:43:39;36.95;;;18.48;;
65459;SDS011;52058;49.822;6.754;2023-02-11T01:46:12;35.45;;;18.13;;
65459;SDS011;52058;49.822;6.754;2023-02-11T01:48:46;34.75;;;17.25;;
65459;SDS011;52058;49.822;6.754;2023-02-11T01:51:17;37.97;;;19.08;;
65459;SDS011;52058;49.822;6.754;2023-02-11T01:53:48;37.75;;;19.15;;
65459;SDS011;52058;49.822;6.754;2023-02-11T01:56:33;34.58;;;18.55;;
65459;SDS011;52058;49.822;6.754;2023-02-11T01:59:21;37.95;;;19.23;;
65459;SDS011;52058;49.822;6.754;2023-02-11T02:01:55;35.05;;;19.23;;
65459;SDS011;52058;49.822;6.754;2023-02-11T02:04:24;39.22;;;19.02;;
65459;SDS011;52058;49.822;6.754;2023-02-11T02:06:58;37.95;;;19.60;;
65459;SDS011;52058;49.822;6.754;2023-02-11T02:09:31;38.72;;;19.83;;
65459;SDS011;52058;49.822;6.754;2023-02-11T02:12:02;39.65;;;19.17;;
65459;SDS011;52058;49.822;6.754;2023-02-11T02:14:29;35.80;;;18.42;;
65459;SDS011;52058;49.822;6.754;2023-02-11T02:16:55;37.60;;;18.13;;
65459;SDS011;52058;49.822;6.754;2023-02-11T02:19:40;36.78;;;18.73;;
65459;SDS011;52058;49.822;6.754;2023-02-11T02:25:43;33.38;;;17.25;;
65459;SDS011;52058;49.822;6.754;2023-02-11T02:28:32;37.40;;;19.05;;
65459;SDS011;52058;49.822;6.754;2023-02-11T02:31:21;38.00;;;17.58;;
65459;SDS011;52058;49.822;6.754;2023-02-11T02:34:02;37.85;;;18.40;;
65459;SDS011;52058;49.822;6.754;2023-02-11T02:36:36;36.75;;;18.13;;
65459;SDS011;52058;49.822;6.754;2023-02-11T02:39:09;39.47;;;18.48;;
65459;SDS011;52058;49.822;6.754;2023-02-11T02:41:39;34.35;;;18.02;;
65459;SDS011;52058;49.822;6.754;2023-02-11T02:44:07;34.35;;;18.50;;
65459;SDS011;52058;49.822;6.754;2023-02-11T02:46:34;36.30;;;17.95;;
65459;SDS011;52058;49.822;6.754;2023-02-11T02:49:05;37.38;;;17.75;;
65459;SDS011;52058;49.822;6.754;2023-02-11T02:51:40;38.53;;;18.38;;
65459;SDS011;52058;49.822;6.754;2023-02-11T02:54:28;35.38;;;18.10;;
65459;SDS011;52058;49.822;6.754;2023-02-11T02:57:18;33.50;;;17.17;;
65459;SDS011;52058;49.822;6.754;2023-02-11T02:59:57;37.17;;;17.52;;
65459;SDS011;52058;49.822;6.754;2023-02-11T03:02:35;36.28;;;17.60;;
65459;SDS011;52058;49.822;6.754;2023-02-11T03:05:10;37.78;;;18.70;;
65459;SDS011;52058;49.822;6.754;2023-02-11T03:07:44;36.00;;;17.35;;
65459;SDS011;52058;49.822;6.754;2023-02-11T03:10:16;35.35;;;17.38;;
65459;SDS011;52058;49.822;6.754;2023-02-11T03:12:46;39.00;;;18.92;;
65459;SDS011;52058;49.822;6.754;2023-02-11T03:15:14;37.55;;;17.92;;
65459;SDS011;52058;49.822;6.754;2023-02-11T03:17:45;36.30;;;18.05;;
65459;SDS011;52058;49.822;6.754;2023-02-11T03:20:16;34.42;;;17.17;;
65459;SDS011;52058;49.822;6.754;2023-02-11T03:22:46;33.63;;;17.70;;
65459;SDS011;52058;49.822;6.754;2023-02-11T03:25:14;36.20;;;17.95;;
65459;SDS011;52058;49.822;6.754;2023-02-11T03:27:42;33.75;;;17.20;;
65459;SDS011;52058;49.822;6.754;2023-02-11T03:30:13;34.00;;;17.13;;
65459;SDS011;52058;49.822;6.754;2023-02-11T03:32:44;35.42;;;17.90;;
65459;SDS011;52058;49.822;6.754;2023-02-11T03:35:18;35.97;;;17.60;;
65459;SDS011;52058;49.822;6.754;2023-02-11T03:37:49;33.93;;;17.13;;
65459;SDS011;52058;49.822;6.754;2023-02-11T03:40:19;36.50;;;18.10;;
65459;SDS011;52058;49.822;6.754;2023-02-11T03:42:48;33.53;;;16.38;;
65459;SDS011;52058;49.822;6.754;2023-02-11T03:45:19;34.33;;;17.30;;
65459;SDS011;52058;49.822;6.754;2023-02-11T03:47:49;35.20;;;18.23;;
65459;SDS011;52058;49.822;6.754;2023-02-11T03:50:21;35.30;;;16.95;;
65459;SDS011;52058;49.822;6.754;2023-02-11T03:52:49;33.47;;;17.27;;
65459;SDS011;52058;49.822;6.754;2023-02-11T03:55:18;33.13;;;16.75;;
65459;SDS011;52058;49.822;6.754;2023-02-11T03:57:49;40.92;;;18.50;;
65459;SDS011;52058;49.822;6.754;2023-02-11T04:00:17;34.00;;;17.80;;
65459;SDS011;52058;49.822;6.754;2023-02-11T04:02:43;36.20;;;17.77;;
65459;SDS011;52058;49.822;6.754;2023-02-11T04:05:13;37.22;;;17.80;;
65459;SDS011;52058;49.822;6.754;2023-02-11T04:07:42;33.92;;;17.42;;
65459;SDS011;52058;49.822;6.754;2023-02-11T04:10:10;37.50;;;19.08;;
65459;SDS011;52058;49.822;6.754;2023-02-11T04:12:37;32.92;;;16.90;;
65459;SDS011;52058;49.822;6.754;2023-02-11T04:15:04;34.78;;;16.80;;
65459;SDS011;52058;49.822;6.754;2023-02-11T04:17:32;32.63;;;16.65;;
65459;SDS011;52058;49.822;6.754;2023-02-11T04:19:59;34.83;;;16.58;;
65459;SDS011;52058;49.822;6.754;2023-02-11T04:22:25;33.88;;;16.55;;
65459;SDS011;52058;49.822;6.754;2023-02-11T04:24:53;37.45;;;17.45;;
65459;SDS011;52058;49.822;6.754;2023-02-11T04:27:20;33.60;;;16.35;;
65459;SDS011;52058;49.822;6.754;2023-02-11T04:29:47;34.13;;;16.83;;
65459;SDS011;52058;49.822;6.754;2023-02-11T04:32:14;35.88;;;16.98;;
65459;SDS011;52058;49.822;6.754;2023-02-11T04:34:41;34.38;;;17.23;;
65459;SDS011;52058;49.822;6.754;2023-02-11T04:37:07;40.28;;;17.70;;
65459;SDS011;52058;49.822;6.754;2023-02-11T04:39:34;38.75;;;18.35;;
65459;SDS011;52058;49.822;6.754;2023-02-11T04:42:03;34.17;;;17.40;;
65459;SDS011;52058;49.822;6.754;2023-02-11T04:44:30;34.97;;;17.05;;
65459;SDS011;52058;49.822;6.754;2023-02-11T04:46:57;31.77;;;16.63;;
65459;SDS011;52058;49.822;6.754;2023-02-11T04:49:24;33.35;;;17.65;;
65459;SDS011;52058;49.822;6.754;2023-02-11T04:51:50;33.75;;;16.98;;
65459;SDS011;52058;49.822;6.754;2023-02-11T04:54:17;33.65;;;16.15;;
65459;SDS011;52058;49.822;6.754;2023-02-11T04:56:44;38.45;;;17.55;;
65459;SDS011;52058;49.822;6.754;2023-02-11T04:59:12;34.55;;;17.80;;
65459;SDS011;52058;49.822;6.754;2023-02-11T05:01:39;33.75;;;17.02;;
65459;SDS011;52058;49.822;6.754;2023-02-11T05:04:06;34.53;;;17.20;;
65459;SDS011;52058;49.822;6.754;2023-02-11T05:06:32;34.65;;;17.00;;
65459;SDS011;52058;49.822;6.754;2023-02-11T05:08:59;37.60;;;18.65;;
65459;SDS011;52058;49.822;6.754;2023-02-11T05:11:26;38.33;;;18.17;;
65459;SDS011;52058;49.822;6.754;2023-02-11T05:13:53;33.75;;;16.77;;
65459;SDS011;52058;49.822;6.754;2023-02-11T05:16:21;37.10;;;17.77;;
65459;SDS011;52058;49.822;6.754;2023-02-11T05:18:47;35.80;;;16.73;;
65459;SDS011;52058;49.822;6.754;2023-02-11T05:21:15;35.75;;;17.23;;
65459;SDS011;52058;49.822;6.754;2023-02-11T05:23:44;36.30;;;17.95;;
65459;SDS011;52058;49.822;6.754;2023-02-11T05:26:11;37.50;;;18.13;;
65459;SDS011;52058;49.822;6.754;2023-02-11T05:28:39;32.55;;;17.08;;
65459;SDS011;52058;49.822;6.754;2023-02-11T05:31:06;32.88;;;16.58;;
65459;SDS011;52058;49.822;6.754;2023-02-11T05:33:35;34.30;;;16.10;;
65459;SDS011;52058;49.822;6.754;2023-02-11T05:36:03;33.90;;;17.15;;
65459;SDS011;52058;49.822;6.754;2023-02-11T05:38:32;36.40;;;17.60;;
65459;SDS011;52058;49.822;6.754;2023-02-11T05:40:59;32.15;;;15.55;;
65459;SDS011;52058;49.822;6.754;2023-02-11T05:43:26;34.50;;;16.65;;
65459;SDS011;52058;49.822;6.754;2023-02-11T05:45:53;33.28;;;15.75;;
65459;SDS011;52058;49.822;6.754;2023-02-11T05:48:20;34.58;;;17.55;;
65459;SDS011;52058;49.822;6.754;2023-02-11T05:50:48;33.72;;;16.13;;
65459;SDS011;52058;49.822;6.754;2023-02-11T05:53:15;34.03;;;17.08;;
65459;SDS011;52058;49.822;6.754;2023-02-11T05:55:41;31.42;;;16.20;;
65459;SDS011;52058;49.822;6.754;2023-02-11T05:58:08;32.10;;;16.30;;
65459;SDS011;52058;49.822;6.754;2023-02-11T06:00:35;31.17;;;15.20;;
65459;SDS011;52058;49.822;6.754;2023-02-11T06:03:02;32.20;;;15.82;;
65459;SDS011;52058;49.822;6.754;2023-02-11T06:05:29;31.95;;;16.60;;
65459;SDS011;52058;49.822;6.754;2023-02-11T06:07:57;40.10;;;18.05;;
65459;SDS011;52058;49.822;6.754;2023-02-11T06:10:24;36.13;;;17.42;;
65459;SDS011;52058;49.822;6.754;2023-02-11T06:12:51;29.52;;;16.08;;
65459;SDS011;52058;49.822;6.754;2023-02-11T06:15:18;31.33;;;15.70;;
65459;SDS011;52058;49.822;6.754;2023-02-11T06:17:45;32.55;;;16.00;;
65459;SDS011;52058;49.822;6.754;2023-02-11T06:20:11;36.13;;;16.67;;
65459;SDS011;52058;49.822;6.754;2023-02-11T06:22:38;35.97;;;16.65;;
65459;SDS011;52058;49.822;6.754;2023-02-11T06:25:06;33.45;;;17.23;;
65459;SDS011;52058;49.822;6.754;2023-02-11T06:27:35;33.72;;;15.80;;
65459;SDS011;52058;49.822;6.754;2023-02-11T06:30:02;33.92;;;17.13;;
65459;SDS011;52058;49.822;6.754;2023-02-11T06:32:29;32.65;;;15.95;;
65459;SDS011;52058;49.822;6.754;2023-02-11T06:34:55;31.83;;;16.77;;
65459;SDS011;52058;49.822;6.754;2023-02-11T06:37:22;34.33;;;17.08;;
65459;SDS011;52058;49.822;6.754;2023-02-11T06:39:49;34.38;;;17.15;;
65459;SDS011;52058;49.822;6.754;2023-02-11T06:42:17;33.63;;;16.45;;
65459;SDS011;52058;49.822;6.754;2023-02-11T06:44:44;31.42;;;16.42;;
65459;SDS011;52058;49.822;6.754;2023-02-11T06:47:11;36.08;;;18.38;;
65459;SDS011;52058;49.822;6.754;2023-02-11T06:49:38;33.47;;;16.73;;
65459;SDS011;52058;49.822;6.754;2023-02-11T06:52:05;33.67;;;17.15;;
65459;SDS011;52058;49.822;6.754;2023-02-11T06:54:32;32.97;;;16.42;;
65459;SDS011;52058;49.822;6.754;2023-02-11T06:56:58;35.00;;;17.35;;
65459;SDS011;52058;49.822;6.754;2023-02-11T06:59:26;32.20;;;16.30;;
65459;SDS011;52058;49.822;6.754;2023-02-11T07:01:53;34.40;;;17.35;;
65459;SDS011;52058;49.822;6.754;2023-02-11T07:04:20;33.90;;;16.27;;
65459;SDS011;52058;49.822;6.754;2023-02-11T07:06:47;30.38;;;15.85;;
65459;SDS011;52058;49.822;6.754;2023-02-11T07:09:13;32.65;;;16.10;;
65459;SDS011;52058;49.822;6.754;2023-02-11T07:11:40;32.03;;;16.77;;
65459;SDS011;52058;49.822;6.754;2023-02-11T07:14:07;36.33;;;16.67;;
65459;SDS011;52058;49.822;6.754;2023-02-11T07:16:38;33.15;;;16.80;;
65459;SDS011;52058;49.822;6.754;2023-02-11T07:19:05;34.78;;;17.10;;
65459;SDS011;52058;49.822;6.754;2023-02-11T07:21:32;33.97;;;16.67;;
65459;SDS011;52058;49.822;6.754;2023-02-11T07:24:00;33.80;;;16.83;;
65459;SDS011;52058;49.822;6.754;2023-02-11T07:26:27;32.17;;;16.38;;
65459;SDS011;52058;49.822;6.754;2023-02-11T07:28:54;33.10;;;17.27;;
65459;SDS011;52058;49.822;6.754;2023-02-11T07:31:21;33.90;;;17.00;;
65459;SDS011;52058;49.822;6.754;2023-02-11T07:33:52;34.72;;;17.02;;
65459;SDS011;52058;49.822;6.754;2023-02-11T07:36:20;34.90;;;17.95;;
65459;SDS011;52058;49.822;6.754;2023-02-11T07:38:48;30.73;;;16.77;;
65459;SDS011;52058;49.822;6.754;2023-02-11T07:41:16;30.75;;;16.25;;
65459;SDS011;52058;49.822;6.754;2023-02-11T07:43:44;33.75;;;17.35;;
65459;SDS011;52058;49.822;6.754;2023-02-11T07:46:11;38.67;;;16.90;;
65459;SDS011;52058;49.822;6.754;2023-02-11T07:48:39;42.67;;;19.15;;
65459;SDS011;52058;49.822;6.754;2023-02-11T07:51:09;51.75;;;21.10;;
65459;SDS011;52058;49.822;6.754;2023-02-11T07:53:37;36.90;;;17.48;;
65459;SDS011;52058;49.822;6.754;2023-02-11T07:56:05;35.33;;;18.20;;
65459;SDS011;52058;49.822;6.754;2023-02-11T07:58:34;37.78;;;18.27;;
65459;SDS011;52058;49.822;6.754;2023-02-11T08:01:01;35.60;;;19.02;;
65459;SDS011;52058;49.822;6.754;2023-02-11T08:03:28;35.45;;;18.52;;
65459;SDS011;52058;49.822;6.754;2023-02-11T08:05:55;37.75;;;18.83;;
65459;SDS011;52058;49.822;6.754;2023-02-11T08:08:24;36.75;;;17.27;;
65459;SDS011;52058;49.822;6.754;2023-02-11T08:10:51;35.38;;;17.70;;
65459;SDS011;52058;49.822;6.754;2023-02-11T08:13:18;34.05;;;17.27;;
65459;SDS011;52058;49.822;6.754;2023-02-11T08:15:44;31.65;;;17.13;;
65459;SDS011;52058;49.822;6.754;2023-02-11T08:18:11;36.63;;;16.90;;
65459;SDS011;52058;49.822;6.754;2023-02-11T08:20:38;32.03;;;16.88;;
65459;SDS011;52058;49.822;6.754;2023-02-11T08:23:05;40.33;;;19.73;;
65459;SDS011;52058;49.822;6.754;2023-02-11T08:25:33;34.20;;;17.73;;
65459;SDS011;52058;49.822;6.754;2023-02-11T08:28:00;35.42;;;17.63;;
65459;SDS011;52058;49.822;6.754;2023-02-11T08:30:27;34.53;;;17.17;;
65459;SDS011;52058;49.822;6.754;2023-02-11T08:32:53;33.35;;;17.42;;
65459;SDS011;52058;49.822;6.754;2023-02-11T08:35:20;33.92;;;17.58;;
65459;SDS011;52058;49.822;6.754;2023-02-11T08:37:47;36.65;;;17.50;;
65459;SDS011;52058;49.822;6.754;2023-02-11T08:40:15;31.50;;;16.00;;
65459;SDS011;52058;49.822;6.754;2023-02-11T08:42:43;38.35;;;17.48;;
65459;SDS011;52058;49.822;6.754;2023-02-11T08:45:10;42.22;;;19.50;;
65459;SDS011;52058;49.822;6.754;2023-02-11T08:47:36;38.70;;;19.30;;
65459;SDS011;52058;49.822;6.754;2023-02-11T08:50:03;38.80;;;20.65;;
65459;SDS011;52058;49.822;6.754;2023-02-11T08:52:31;40.72;;;20.58;;
65459;SDS011;52058;49.822;6.754;2023-02-11T08:54:57;33.38;;;17.85;;
65459;SDS011;52058;49.822;6.754;2023-02-11T08:57:24;36.15;;;17.00;;
65459;SDS011;52058;49.822;6.754;2023-02-11T08:59:52;35.83;;;17.00;;
65459;SDS011;52058;49.822;6.754;2023-02-11T09:02:19;31.85;;;16.80;;
65459;SDS011;52058;49.822;6.754;2023-02-11T09:04:46;31.52;;;16.67;;
65459;SDS011;52058;49.822;6.754;2023-02-11T09:07:13;38.42;;;19.38;;
65459;SDS011;52058;49.822;6.754;2023-02-11T09:09:39;50.13;;;22.73;;
65459;SDS011;52058;49.822;6.754;2023-02-11T09:12:06;35.63;;;17.90;;
65459;SDS011;52058;49.822;6.754;2023-02-11T09:14:33;33.28;;;17.27;;
65459;SDS011;52058;49.822;6.754;2023-02-11T09:17:01;35.53;;;17.92;;
65459;SDS011;52058;49.822;6.754;2023-02-11T09:19:28;33.30;;;17.20;;
65459;SDS011;52058;49.822;6.754;2023-02-11T09:21:55;34.13;;;17.33;;
65459;SDS011;52058;49.822;6.754;2023-02-11T09:24:23;34.28;;;16.75;;
65459;SDS011;52058;49.822;6.754;2023-02-11T09:26:49;40.33;;;19.77;;
65459;SDS011;52058;49.822;6.754;2023-02-11T09:29:16;37.80;;;17.42;;
65459;SDS011;52058;49.822;6.754;2023-02-11T09:31:43;33.75;;;16.60;;
65459;SDS011;52058;49.822;6.754;2023-02-11T09:34:11;34.40;;;16.73;;
65459;SDS011;52058;49.822;6.754;2023-02-11T09:36:39;28.75;;;16.17;;
65459;SDS011;52058;49.822;6.754;2023-02-11T09:39:07;32.83;;;16.80;;
65459;SDS011;52058;49.822;6.754;2023-02-11T09:41:39;35.92;;;19.13;;
65459;SDS011;52058;49.822;6.754;2023-02-11T09:44:21;37.97;;;16.92;;
65459;SDS011;52058;49.822;6.754;2023-02-11T09:46:52;34.95;;;16.40;;
65459;SDS011;52058;49.822;6.754;2023-02-11T09:49:23;36.70;;;16.30;;
65459;SDS011;52058;49.822;6.754;2023-02-11T09:51:56;33.08;;;18.00;;
65459;SDS011;52058;49.822;6.754;2023-02-11T09:54:29;30.00;;;16.60;;
65459;SDS011;52058;49.822;6.754;2023-02-11T09:56:59;32.42;;;16.63;;
65459;SDS011;52058;49.822;6.754;2023-02-11T09:59:26;31.80;;;15.55;;
65459;SDS011;52058;49.822;6.754;2023-02-11T10:01:53;30.40;;;15.13;;
65459;SDS011;52058;49.822;6.754;2023-02-11T10:04:33;29.50;;;13.73;;
65459;SDS011;52058;49.822;6.754;2023-02-11T10:07:11;28.48;;;14.93;;
65459;SDS011;52058;49.822;6.754;2023-02-11T10:09:50;29.88;;;15.20;;
65459;SDS011;52058;49.822;6.754;2023-02-11T10:15:17;31.52;;;13.63;;
65459;SDS011;52058;49.822;6.754;2023-02-11T10:20:45;30.25;;;14.20;;
65459;SDS011;52058;49.822;6.754;2023-02-11T10:23:19;26.88;;;14.27;;
65459;SDS011;52058;49.822;6.754;2023-02-11T10:25:50;29.92;;;14.35;;
65459;SDS011;52058;49.822;6.754;2023-02-11T10:28:20;26.30;;;13.15;;
65459;SDS011;52058;49.822;6.754;2023-02-11T10:30:51;26.13;;;13.68;;
65459;SDS011;52058;49.822;6.754;2023-02-11T10:33:24;27.52;;;13.82;;
65459;SDS011;52058;49.822;6.754;2023-02-11T10:35:56;30.25;;;12.60;;
65459;SDS011;52058;49.822;6.754;2023-02-11T10:38:23;23.13;;;10.70;;
65459;SDS011;52058;49.822;6.754;2023-02-11T10:40:50;22.73;;;11.52;;
65459;SDS011;52058;49.822;6.754;2023-02-11T10:43:18;23.85;;;12.15;;
65459;SDS011;52058;49.822;6.754;2023-02-11T10:45:48;19.80;;;10.75;;
65459;SDS011;52058;49.822;6.754;2023-02-11T10:48:37;22.90;;;11.43;;
65459;SDS011;52058;49.822;6.754;2023-02-11T10:51:11;24.85;;;11.90;;
65459;SDS011;52058;49.822;6.754;2023-02-11T10:53:41;25.33;;;12.48;;
65459;SDS011;52058;49.822;6.754;2023-02-11T10:56:09;23.77;;;11.93;;
65459;SDS011;52058;49.822;6.754;2023-02-11T10:58:39;23.33;;;12.18;;
65459;SDS011;52058;49.822;6.754;2023-02-11T11:01:09;27.02;;;13.77;;
65459;SDS011;52058;49.822;6.754;2023-02-11T11:03:37;21.85;;;11.65;;
65459;SDS011;52058;49.822;6.754;2023-02-11T11:06:06;24.08;;;11.77;;
65459;SDS011;52058;49.822;6.754;2023-02-11T11:08:39;24.23;;;11.35;;
65459;SDS011;52058;49.822;6.754;2023-02-11T11:11:08;20.38;;;10.50;;
65459;SDS011;52058;49.822;6.754;2023-02-11T11:13:37;26.30;;;12.25;;
65459;SDS011;52058;49.822;6.754;2023-02-11T11:16:14;23.45;;;11.55;;
65459;SDS011;52058;49.822;6.754;2023-02-11T11:18:43;22.85;;;11.80;;
65459;SDS011;52058;49.822;6.754;2023-02-11T11:21:13;28.88;;;13.93;;
65459;SDS011;52058;49.822;6.754;2023-02-11T11:23:47;22.90;;;10.98;;
65459;SDS011;52058;49.822;6.754;2023-02-11T11:26:16;25.58;;;11.10;;
65459;SDS011;52058;49.822;6.754;2023-02-11T11:28:49;26.77;;;12.52;;
65459;SDS011;52058;49.822;6.754;2023-02-11T11:31:19;28.52;;;12.57;;
65459;SDS011;52058;49.822;6.754;2023-02-11T11:33:50;23.60;;;12.35;;
65459;SDS011;52058;49.822;6.754;2023-02-11T11:36:21;26.48;;;13.57;;
65459;SDS011;52058;49.822;6.754;2023-02-11T11:38:57;26.95;;;13.20;;
65459;SDS011;52058;49.822;6.754;2023-02-11T11:41:28;26.42;;;13.48;;
65459;SDS011;52058;49.822;6.754;2023-02-11T11:43:57;26.52;;;13.82;;
65459;SDS011;52058;49.822;6.754;2023-02-11T11:46:26;27.60;;;13.05;;
65459;SDS011;52058;49.822;6.754;2023-02-11T11:48:57;25.10;;;11.60;;
65459;SDS011;52058;49.822;6.754;2023-02-11T11:51:31;27.73;;;12.23;;
65459;SDS011;52058;49.822;6.754;2023-02-11T11:54:01;26.95;;;12.75;;
65459;SDS011;52058;49.822;6.754;2023-02-11T11:56:32;23.73;;;12.32;;
65459;SDS011;52058;49.822;6.754;2023-02-11T11:59:05;23.50;;;11.75;;
65459;SDS011;52058;49.822;6.754;2023-02-11T12:01:39;24.55;;;12.18;;
65459;SDS011;52058;49.822;6.754;2023-02-11T12:07:20;23.90;;;11.95;;
65459;SDS011;52058;49.822;6.754;2023-02-11T12:10:03;26.00;;;12.88;;
65459;SDS011;52058;49.822;6.754;2023-02-11T12:15:28;22.08;;;10.73;;
65459;SDS011;52058;49.822;6.754;2023-02-11T12:18:02;22.65;;;11.38;;
65459;SDS011;52058;49.822;6.754;2023-02-11T12:20:42;25.38;;;12.05;;
65459;SDS011;52058;49.822;6.754;2023-02-11T12:23:28;25.52;;;11.30;;
65459;SDS011;52058;49.822;6.754;2023-02-11T12:26:13;24.05;;;11.25;;
65459;SDS011;52058;49.822;6.754;2023-02-11T12:28:48;22.30;;;11.10;;
65459;SDS011;52058;49.822;6.754;2023-02-11T12:31:26;29.25;;;12.45;;
65459;SDS011;52058;49.822;6.754;2023-02-11T12:36:59;25.40;;;12.07;;
65459;SDS011;52058;49.822;6.754;2023-02-11T12:39:36;22.45;;;12.30;;
65459;SDS011;52058;49.822;6.754;2023-02-11T12:45:30;24.23;;;11.45;;
65459;SDS011;52058;49.822;6.754;2023-02-11T12:48:22;20.90;;;11.32;;
65459;SDS011;52058;49.822;6.754;2023-02-11T12:51:04;25.10;;;11.73;;
65459;SDS011;52058;49.822;6.754;2023-02-11T12:53:44;25.50;;;11.88;;
65459;SDS011;52058;49.822;6.754;2023-02-11T12:56:27;22.33;;;11.95;;
65459;SDS011;52058;49.822;6.754;2023-02-11T12:58:58;22.67;;;11.52;;
65459;SDS011;52058;49.822;6.754;2023-02-11T13:01:28;24.35;;;12.45;;
65459;SDS011;52058;49.822;6.754;2023-02-11T13:03:58;25.10;;;12.60;;
65459;SDS011;52058;49.822;6.754;2023-02-11T13:06:34;29.23;;;13.45;;
65459;SDS011;52058;49.822;6.754;2023-02-11T13:09:04;24.42;;;11.80;;
65459;SDS011;52058;49.822;6.754;2023-02-11T13:11:38;27.33;;;12.45;;
65459;SDS011;52058;49.822;6.754;2023-02-11T13:14:08;24.88;;;12.13;;
65459;SDS011;52058;49.822;6.754;2023-02-11T13:16:40;29.77;;;13.37;;
65459;SDS011;52058;49.822;6.754;2023-02-11T13:19:13;27.45;;;12.45;;
65459;SDS011;52058;49.822;6.754;2023-02-11T13:21:52;25.02;;;11.98;;
65459;SDS011;52058;49.822;6.754;2023-02-11T13:24:28;23.67;;;11.35;;
65459;SDS011;52058;49.822;6.754;2023-02-11T13:27:06;23.77;;;11.93;;
65459;SDS011;52058;49.822;6.754;2023-02-11T13:33:02;22.08;;;12.25;;
65459;SDS011;52058;49.822;6.754;2023-02-11T13:35:44;23.25;;;12.13;;
65459;SDS011;52058;49.822;6.754;2023-02-11T13:38:18;27.00;;;13.30;;
65459;SDS011;52058;49.822;6.754;2023-02-11T13:40:56;25.23;;;11.48;;
65459;SDS011;52058;49.822;6.754;2023-02-11T13:43:28;24.40;;;12.48;;
65459;SDS011;52058;49.822;6.754;2023-02-11T13:45:56;21.83;;;11.40;;
65459;SDS011;52058;49.822;6.754;2023-02-11T13:48:26;25.33;;;12.25;;
65459;SDS011;52058;49.822;6.754;2023-02-11T13:50:56;24.00;;;12.18;;
65459;SDS011;52058;49.822;6.754;2023-02-11T13:53:25;26.65;;;12.38;;
65459;SDS011;52058;49.822;6.754;2023-02-11T13:55:53;26.52;;;12.73;;
65459;SDS011;52058;49.822;6.754;2023-02-11T13:58:38;25.30;;;12.80;;
65459;SDS011;52058;49.822;6.754;2023-02-11T14:01:17;24.50;;;11.70;;
65459;SDS011;52058;49.822;6.754;2023-02-11T14:04:05;26.50;;;13.32;;
65459;SDS011;52058;49.822;6.754;2023-02-11T14:07:20;23.80;;;12.07;;
65459;SDS011;52058;49.822;6.754;2023-02-11T14:13:16;27.20;;;12.48;;
65459;SDS011;52058;49.822;6.754;2023-02-11T14:15:50;26.88;;;13.32;;
65459;SDS011;52058;49.822;6.754;2023-02-11T14:21:29;26.65;;;13.10;;
65459;SDS011;52058;49.822;6.754;2023-02-11T14:26:59;24.02;;;12.07;;
65459;SDS011;52058;49.822;6.754;2023-02-11T14:29:32;26.90;;;13.32;;
65459;SDS011;52058;49.822;6.754;2023-02-11T14:32:07;27.38;;;13.93;;
65459;SDS011;52058;49.822;6.754;2023-02-11T14:34:46;29.90;;;14.35;;
65459;SDS011;52058;49.822;6.754;2023-02-11T14:37:21;27.35;;;13.85;;
65459;SDS011;52058;49.822;6.754;2023-02-11T14:40:04;27.73;;;14.52;;
65459;SDS011;52058;49.822;6.754;2023-02-11T14:42:41;39.25;;;21.58;;
65459;SDS011;52058;49.822;6.754;2023-02-11T14:45:10;28.63;;;14.27;;
65459;SDS011;52058;49.822;6.754;2023-02-11T14:47:45;31.65;;;14.55;;
65459;SDS011;52058;49.822;6.754;2023-02-11T14:50:18;36.97;;;17.65;;
65459;SDS011;52058;49.822;6.754;2023-02-11T14:52:49;47.53;;;26.08;;
65459;SDS011;52058;49.822;6.754;2023-02-11T14:55:20;30.27;;;13.68;;
65459;SDS011;52058;49.822;6.754;2023-02-11T14:58:07;29.48;;;13.48;;
65459;SDS011;52058;49.822;6.754;2023-02-11T15:00:50;27.85;;;13.10;;
65459;SDS011;52058;49.822;6.754;2023-02-11T15:03:27;27.10;;;13.38;;
65459;SDS011;52058;49.822;6.754;2023-02-11T15:05:59;29.08;;;13.55;;
65459;SDS011;52058;49.822;6.754;2023-02-11T15:08:28;26.25;;;13.40;;
65459;SDS011;52058;49.822;6.754;2023-02-11T15:10:56;23.67;;;12.40;;
65459;SDS011;52058;49.822;6.754;2023-02-11T15:13:24;27.88;;;12.63;;